Washington Township, Michigan
Current Conditions -  °F | °C
As of 7:55 PM on Monday 24 Nov 2014 (Local Time) from KMTC Reporting Station
Overcast Overcast  
Wind Chill: 28°   Ceiling: 2600
Heat Index: 38°   Visibility: 12mi
Dew Point: 29°   Wind: 22mph
Humidity: 71%   Direction: 230°SW
Pressure: 29.53"   Gusts: 41mph
Location:  42.7821°N, 83.0432°W
Report Text: KMTC 250055Z 23019G36KT 12SM OVC026 04/M01 A2953 RMK PK WND 22036/50 22036/2357 SLP010 T00351014
Loading
Personal Weather Stations






























Interactive Weather Map New forecast layout! Learn more

10-Day Weather Forecast

Advertisements
Track Severe Weather on mobile